sensor_id;sensor_type;location;lat;lon;timestamp;temperature;humidity
43862;DHT22;29510;52.140;5.034;2023-02-03T00:02:18;9.30;99.90
43862;DHT22;29510;52.140;5.034;2023-02-03T00:12:19;9.30;99.90
43862;DHT22;29510;52.140;5.034;2023-02-03T00:22:20;9.30;99.90
43862;DHT22;29510;52.140;5.034;2023-02-03T00:32:21;9.30;99.90
43862;DHT22;29510;52.140;5.034;2023-02-03T00:42:22;9.30;99.90
43862;DHT22;29510;52.140;5.034;2023-02-03T00:52:23;9.20;99.90
43862;DHT22;29510;52.140;5.034;2023-02-03T01:02:24;9.20;99.90
43862;DHT22;29510;52.140;5.034;2023-02-03T01:12:27;9.20;99.90
43862;DHT22;29510;52.140;5.034;2023-02-03T01:22:29;9.20;99.90
43862;DHT22;29510;52.140;5.034;2023-02-03T01:32:30;9.10;99.90
43862;DHT22;29510;52.140;5.034;2023-02-03T01:42:32;9.20;99.90
43862;DHT22;29510;52.140;5.034;2023-02-03T01:52:34;9.30;97.50
43862;DHT22;29510;52.140;5.034;2023-02-03T02:02:36;9.30;96.30
43862;DHT22;29510;52.140;5.034;2023-02-03T02:12:37;9.30;94.10
43862;DHT22;29510;52.140;5.034;2023-02-03T02:33:11;9.50;71.00
43862;DHT22;29510;52.140;5.034;2023-02-03T02:53:24;9.60;69.30
43862;DHT22;29510;52.140;5.034;2023-02-03T03:03:25;9.70;65.10
43862;DHT22;29510;52.140;5.034;2023-02-03T03:13:33;9.70;64.60
43862;DHT22;29510;52.140;5.034;2023-02-03T03:23:38;9.70;67.10
43862;DHT22;29510;52.140;5.034;2023-02-03T03:33:39;9.80;58.50
43862;DHT22;29510;52.140;5.034;2023-02-03T03:43:42;9.80;56.00
43862;DHT22;29510;52.140;5.034;2023-02-03T03:53:46;9.80;59.10
43862;DHT22;29510;52.140;5.034;2023-02-03T04:03:53;9.90;58.80
43862;DHT22;29510;52.140;5.034;2023-02-03T04:13:55;9.90;56.10
43862;DHT22;29510;52.140;5.034;2023-02-03T04:23:56;9.90;57.10
43862;DHT22;29510;52.140;5.034;2023-02-03T04:33:57;9.90;60.30
43862;DHT22;29510;52.140;5.034;2023-02-03T04:43:58;9.90;60.00
43862;DHT22;29510;52.140;5.034;2023-02-03T04:53:59;9.70;72.00
43862;DHT22;29510;52.140;5.034;2023-02-03T05:04:00;9.80;67.20
43862;DHT22;29510;52.140;5.034;2023-02-03T05:14:01;9.80;65.60
43862;DHT22;29510;52.140;5.034;2023-02-03T05:24:02;9.80;66.00
43862;DHT22;29510;52.140;5.034;2023-02-03T05:34:06;9.80;69.50
43862;DHT22;29510;52.140;5.034;2023-02-03T05:44:07;9.80;67.10
43862;DHT22;29510;52.140;5.034;2023-02-03T05:54:08;9.70;69.40
43862;DHT22;29510;52.140;5.034;2023-02-03T06:04:10;9.70;71.10
43862;DHT22;29510;52.140;5.034;2023-02-03T06:14:11;9.70;68.80
43862;DHT22;29510;52.140;5.034;2023-02-03T06:24:12;9.60;76.00
43862;DHT22;29510;52.140;5.034;2023-02-03T06:34:13;9.70;77.40
43862;DHT22;29510;52.140;5.034;2023-02-03T06:44:14;9.60;88.80
43862;DHT22;29510;52.140;5.034;2023-02-03T06:54:15;9.70;72.80
43862;DHT22;29510;52.140;5.034;2023-02-03T07:04:16;9.60;87.60
43862;DHT22;29510;52.140;5.034;2023-02-03T07:14:17;9.60;84.60
43862;DHT22;29510;52.140;5.034;2023-02-03T07:24:18;9.60;90.40
43862;DHT22;29510;52.140;5.034;2023-02-03T07:34:19;9.60;92.20
43862;DHT22;29510;52.140;5.034;2023-02-03T07:44:20;9.50;97.20
43862;DHT22;29510;52.140;5.034;2023-02-03T07:54:21;9.50;98.40
43862;DHT22;29510;52.140;5.034;2023-02-03T08:04:22;9.60;98.60
43862;DHT22;29510;52.140;5.034;2023-02-03T08:14:24;9.60;99.90
43862;DHT22;29510;52.140;5.034;2023-02-03T08:24:25;9.60;99.90
43862;DHT22;29510;52.140;5.034;2023-02-03T08:34:26;9.60;99.90
43862;DHT22;29510;52.140;5.034;2023-02-03T08:44:27;9.80;99.90
43862;DHT22;29510;52.140;5.034;2023-02-03T08:54:28;9.90;97.20
43862;DHT22;29510;52.140;5.034;2023-02-03T09:04:29;9.90;98.90
43862;DHT22;29510;52.140;5.034;2023-02-03T09:14:31;10.00;97.20
43862;DHT22;29510;52.140;5.034;2023-02-03T09:24:32;10.10;93.90
43862;DHT22;29510;52.140;5.034;2023-02-03T09:34:34;10.20;94.00
43862;DHT22;29510;52.140;5.034;2023-02-03T10:26:02;10.50;75.80
43862;DHT22;29510;52.140;5.034;2023-02-03T10:46:31;10.50;79.00
43862;DHT22;29510;52.140;5.034;2023-02-03T10:56:36;10.50;74.50
43862;DHT22;29510;52.140;5.034;2023-02-03T11:06:54;10.60;75.90
43862;DHT22;29510;52.140;5.034;2023-02-03T11:16:55;10.60;76.60
43862;DHT22;29510;52.140;5.034;2023-02-03T11:27:03;10.70;76.70
43862;DHT22;29510;52.140;5.034;2023-02-03T11:37:25;10.80;72.70
43862;DHT22;29510;52.140;5.034;2023-02-03T11:47:27;10.80;69.40
43862;DHT22;29510;52.140;5.034;2023-02-03T12:08:08;10.90;69.50
43862;DHT22;29510;52.140;5.034;2023-02-03T12:28:41;10.70;73.70
43862;DHT22;29510;52.140;5.034;2023-02-03T12:39:05;10.60;87.80
43862;DHT22;29510;52.140;5.034;2023-02-03T12:59:22;10.20;99.90
43862;DHT22;29510;52.140;5.034;2023-02-03T13:09:33;10.10;99.90
43862;DHT22;29510;52.140;5.034;2023-02-03T13:19:43;9.90;99.90
43862;DHT22;29510;52.140;5.034;2023-02-03T13:40:54;10.10;99.90
43862;DHT22;29510;52.140;5.034;2023-02-03T13:50:29;10.00;99.90
43862;DHT22;29510;52.140;5.034;2023-02-03T14:10:44;10.10;99.90
43862;DHT22;29510;52.140;5.034;2023-02-03T14:20:48;10.10;99.90
43862;DHT22;29510;52.140;5.034;2023-02-03T14:41:03;10.00;99.90
43862;DHT22;29510;52.140;5.034;2023-02-03T14:51:32;10.00;99.90
43862;DHT22;29510;52.140;5.034;2023-02-03T15:11:44;9.90;99.90
43862;DHT22;29510;52.140;5.034;2023-02-03T15:21:46;9.90;99.90
43862;DHT22;29510;52.140;5.034;2023-02-03T15:31:52;9.80;99.90
43862;DHT22;29510;52.140;5.034;2023-02-03T15:41:55;9.80;99.90
43862;DHT22;29510;52.140;5.034;2023-02-03T15:52:05;9.70;99.90
43862;DHT22;29510;52.140;5.034;2023-02-03T16:02:18;9.60;99.90
43862;DHT22;29510;52.140;5.034;2023-02-03T16:12:22;9.60;99.90
43862;DHT22;29510;52.140;5.034;2023-02-03T16:22:34;9.40;99.90
43862;DHT22;29510;52.140;5.034;2023-02-03T16:32:36;9.30;99.90
43862;DHT22;29510;52.140;5.034;2023-02-03T16:42:56;9.20;99.90
43862;DHT22;29510;52.140;5.034;2023-02-03T16:53:28;9.20;99.90
43862;DHT22;29510;52.140;5.034;2023-02-03T17:03:34;9.10;99.90
43862;DHT22;29510;52.140;5.034;2023-02-03T17:13:35;9.10;99.90
43862;DHT22;29510;52.140;5.034;2023-02-03T17:23:37;9.00;99.90
43862;DHT22;29510;52.140;5.034;2023-02-03T17:33:39;9.00;99.90
43862;DHT22;29510;52.140;5.034;2023-02-03T17:43:40;8.90;99.90
43862;DHT22;29510;52.140;5.034;2023-02-03T17:53:41;8.80;96.20
43862;DHT22;29510;52.140;5.034;2023-02-03T18:03:44;8.80;71.10
43862;DHT22;29510;52.140;5.034;2023-02-03T18:13:47;8.80;67.00
43862;DHT22;29510;52.140;5.034;2023-02-03T18:23:49;8.80;74.80
43862;DHT22;29510;52.140;5.034;2023-02-03T18:33:51;8.70;68.90
43862;DHT22;29510;52.140;5.034;2023-02-03T18:43:52;8.80;54.80
43862;DHT22;29510;52.140;5.034;2023-02-03T18:53:57;8.90;87.90
43862;DHT22;29510;52.140;5.034;2023-02-03T19:04:00;8.90;99.60
43862;DHT22;29510;52.140;5.034;2023-02-03T19:14:02;9.00;99.90
43862;DHT22;29510;52.140;5.034;2023-02-03T19:24:04;8.90;99.90
43862;DHT22;29510;52.140;5.034;2023-02-03T19:34:05;8.80;99.90
43862;DHT22;29510;52.140;5.034;2023-02-03T19:44:06;9.00;99.90
43862;DHT22;29510;52.140;5.034;2023-02-03T19:54:10;9.00;99.90
43862;DHT22;29510;52.140;5.034;2023-02-03T20:04:12;8.80;99.90
43862;DHT22;29510;52.140;5.034;2023-02-03T20:14:13;8.90;99.90
43862;DHT22;29510;52.140;5.034;2023-02-03T20:24:16;8.90;92.90
43862;DHT22;29510;52.140;5.034;2023-02-03T20:34:17;8.90;81.30
43862;DHT22;29510;52.140;5.034;2023-02-03T20:44:18;8.80;67.70
43862;DHT22;29510;52.140;5.034;2023-02-03T20:54:20;8.80;62.10
43862;DHT22;29510;52.140;5.034;2023-02-03T21:04:21;8.80;46.60
43862;DHT22;29510;52.140;5.034;2023-02-03T21:14:43;8.70;34.50
43862;DHT22;29510;52.140;5.034;2023-02-03T21:24:48;8.80;25.10
43862;DHT22;29510;52.140;5.034;2023-02-03T21:34:50;8.70;28.30
43862;DHT22;29510;52.140;5.034;2023-02-03T21:44:51;8.70;27.30
43862;DHT22;29510;52.140;5.034;2023-02-03T21:54:53;8.70;27.00
43862;DHT22;29510;52.140;5.034;2023-02-03T22:04:54;8.60;35.90
43862;DHT22;29510;52.140;5.034;2023-02-03T22:14:56;8.60;43.70
43862;DHT22;29510;52.140;5.034;2023-02-03T22:24:57;8.60;44.40
43862;DHT22;29510;52.140;5.034;2023-02-03T22:34:58;8.50;64.60
43862;DHT22;29510;52.140;5.034;2023-02-03T22:44:59;8.50;84.00
43862;DHT22;29510;52.140;5.034;2023-02-03T22:55:00;8.40;99.90
43862;DHT22;29510;52.140;5.034;2023-02-03T23:05:01;8.30;99.90
43862;DHT22;29510;52.140;5.034;2023-02-03T23:15:03;8.40;99.90
43862;DHT22;29510;52.140;5.034;2023-02-03T23:25:04;8.30;99.90
43862;DHT22;29510;52.140;5.034;2023-02-03T23:35:06;8.20;99.90
43862;DHT22;29510;52.140;5.034;2023-02-03T23:45:26;8.20;99.90
43862;DHT22;29510;52.140;5.034;2023-02-03T23:55:27;8.20;99.90
